Time;durP1;ratioP1;P1;durP2;ratioP2;P2;SDS_P1;SDS_P2;PMS_P1;PMS_P2;Temp;Humidity;BMP_temperature;BMP_pressure;BME280_temperature;BME280_humidity;BME280_pressure;Samples;Min_cycle;Max_cycle;Signal;HPM_P1;HPM_P2
2022/07/19 00:09:43;;;;;;;6.43;2.40;;;;;;;19.28;76.36;100632.66;20816744;28;20537;-68
2022/07/19 00:19:45;;;;;;;8.48;2.85;;;;;;;19.38;75.35;100641.03;20833235;28;20092;-69
2022/07/19 00:29:47;;;;;;;7.30;2.40;;;;;;;19.18;79.05;100642.84;20832171;28;20084;-69
2022/07/19 00:39:49;;;;;;;8.10;2.88;;;;;;;19.14;77.97;100640.41;20840803;28;20049;-68
2022/07/19 00:49:50;;;;;;;7.68;3.05;;;;;;;18.36;85.21;100643.94;20912850;28;20049;-69
2022/07/19 00:59:52;;;;;;;6.28;2.90;;;;;;;18.23;84.25;100640.13;20913356;28;20493;-69
2022/07/19 01:09:53;;;;;;;7.50;2.78;;;;;;;18.25;83.29;100638.25;20911849;28;20052;-69
2022/07/19 01:19:55;;;;;;;4.97;2.70;;;;;;;18.49;80.00;100637.16;20913017;28;20061;-68
2022/07/19 01:29:56;;;;;;;7.82;2.97;;;;;;;17.93;86.16;100641.38;20909813;28;20171;-69
2022/07/19 01:39:58;;;;;;;7.38;3.42;;;;;;;17.82;85.11;100634.78;20909558;28;20049;-68
2022/07/19 01:49:59;;;;;;;5.38;2.80;;;;;;;17.63;87.85;100635.53;20908806;28;20052;-69
2022/07/19 02:00:00;;;;;;;8.05;2.88;;;;;;;17.68;86.99;100633.56;20908764;28;20445;-69
2022/07/19 02:10:02;;;;;;;6.38;2.85;;;;;;;17.93;84.21;100612.22;20907324;28;20056;-69
2022/07/19 02:20:03;;;;;;;5.97;2.70;;;;;;;18.04;82.55;100602.94;20906932;28;20052;-69
2022/07/19 02:30:04;;;;;;;6.38;2.90;;;;;;;17.86;84.39;100609.88;20905604;28;20052;-69
2022/07/19 02:40:06;;;;;;;7.03;3.08;;;;;;;17.60;88.00;100595.06;20904387;28;20059;-68
2022/07/19 02:50:07;;;;;;;7.45;3.00;;;;;;;17.36;89.29;100594.28;20927826;22;21114;-72
2022/07/19 03:00:09;;;;;;;7.57;3.13;;;;;;;17.31;90.39;100596.25;20900978;28;20072;-72
2022/07/19 03:10:10;;;;;;;8.90;3.40;;;;;;;17.27;90.71;100607.91;20900762;28;20158;-70
2022/07/19 03:20:12;;;;;;;8.48;2.83;;;;;;;17.37;89.84;100601.31;20899992;28;20049;-70
2022/07/19 03:30:13;;;;;;;6.40;3.38;;;;;;;16.93;94.85;100612.72;20898612;28;20516;-70
2022/07/19 03:40:14;;;;;;;12.98;3.50;;;;;;;17.03;92.29;100602.66;20898995;28;20053;-72
2022/07/19 03:50:17;;;;;;;7.25;3.28;;;;;;;16.98;90.65;100617.84;20897792;28;20072;-70
2022/07/19 04:00:18;;;;;;;9.02;3.72;;;;;;;17.03;88.45;100629.09;20897313;28;20439;-70
2022/07/19 04:10:19;;;;;;;7.45;3.30;;;;;;;17.13;88.53;100630.47;20898763;28;20053;-72
2022/07/19 04:20:21;;;;;;;7.40;3.63;;;;;;;17.31;86.90;100617.44;20898517;28;20057;-73
2022/07/19 04:30:22;;;;;;;7.47;3.47;;;;;;;17.43;85.80;100619.56;20964290;28;20390;-73
2022/07/19 04:40:24;;;;;;;7.68;3.33;;;;;;;18.25;77.55;100625.84;20981170;28;20216;-71
2022/07/19 04:50:25;;;;;;;6.80;3.10;;;;;;;18.87;73.23;100631.94;20980487;28;20401;-70
2022/07/19 05:00:26;;;;;;;8.70;3.17;;;;;;;18.87;73.99;100621.31;20986703;28;20040;-70
2022/07/19 05:10:28;;;;;;;8.38;3.40;;;;;;;18.84;74.88;100634.75;20994705;28;20556;-71
2022/07/19 05:20:29;;;;;;;7.07;2.95;;;;;;;19.08;72.07;100624.78;20993254;28;20051;-71
2022/07/19 05:30:30;;;;;;;8.20;2.42;;;;;;;19.43;69.47;100631.91;20992615;28;20068;-70
2022/07/19 05:40:32;;;;;;;9.68;2.70;;;;;;;19.87;66.44;100617.38;20991967;28;20041;-70
2022/07/19 05:50:33;;;;;;;7.57;2.47;;;;;;;20.21;66.12;100632.44;20991749;28;20409;-68
2022/07/19 06:00:34;;;;;;;11.05;2.80;;;;;;;20.48;63.65;100623.06;20987676;28;20050;-68
2022/07/19 06:10:36;;;;;;;8.70;2.75;;;;;;;20.82;63.17;100626.56;20988469;28;20052;-68
2022/07/19 06:20:37;;;;;;;8.13;2.42;;;;;;;21.09;59.96;100636.66;20987703;28;20049;-67
2022/07/19 06:30:39;;;;;;;10.10;2.72;;;;;;;21.52;57.80;100629.78;20987260;28;20036;-67
2022/07/19 06:40:40;;;;;;;8.02;2.78;;;;;;;21.80;57.91;100625.47;20987420;28;20500;-69
2022/07/19 06:50:42;;;;;;;9.52;2.67;;;;;;;22.25;55.94;100630.78;20987627;28;20561;-68
2022/07/19 07:00:43;;;;;;;8.95;2.90;;;;;;;22.55;54.58;100624.50;20982872;28;20135;-67
2022/07/19 07:10:45;;;;;;;6.38;2.88;;;;;;;23.10;51.97;100633.56;20972852;28;20139;-68
2022/07/19 07:20:46;;;;;;;6.78;2.63;;;;;;;23.32;52.06;100625.00;20945804;28;20492;-69
2022/07/19 07:30:47;;;;;;;6.82;2.70;;;;;;;23.72;50.18;100618.78;20981608;28;20052;-68
2022/07/19 07:40:49;;;;;;;6.85;2.78;;;;;;;24.12;51.77;100621.44;20983193;28;20087;-68
2022/07/19 07:51:10;;;;;;;6.80;2.60;;;;;;;24.55;50.07;100602.41;20981597;28;20059;-68
2022/07/19 08:01:31;;;;;;;12.30;2.97;;;;;;;24.99;49.92;100590.31;20983615;28;20094;-68
2022/07/19 08:11:34;;;;;;;10.23;2.63;;;;;;;25.57;46.70;100575.31;20982454;28;20545;-66
2022/07/19 08:21:35;;;;;;;9.57;3.30;;;;;;;26.21;47.27;100567.72;20981131;28;20082;-68
2022/07/19 08:31:38;;;;;;;8.75;2.50;;;;;;;26.66;45.95;100554.31;20981619;28;20048;-69
2022/07/19 08:41:40;;;;;;;8.30;3.20;;;;;;;27.33;41.53;100548.78;20967044;28;20890;-68
2022/07/19 08:51:41;;;;;;;7.55;2.42;;;;;;;27.86;40.14;100554.19;20952152;28;20044;-67
2022/07/19 09:01:43;;;;;;;6.30;2.88;;;;;;;28.20;39.21;100553.09;20978562;28;20044;-68
2022/07/19 09:11:51;;;;;;;8.45;2.60;;;;;;;28.81;37.76;100543.16;20994767;28;20056;-68
2022/07/19 09:21:53;;;;;;;5.03;2.45;;;;;;;29.53;34.68;100538.44;20992930;28;20080;-68
2022/07/19 09:31:54;;;;;;;9.88;2.70;;;;;;;30.02;32.85;100533.84;20991552;28;20056;-68
2022/07/19 09:41:56;;;;;;;8.25;2.60;;;;;;;30.53;32.33;100527.16;20990828;28;20052;-69
2022/07/19 09:51:58;;;;;;;6.43;2.33;;;;;;;30.98;30.36;100507.41;20990023;28;20052;-68
2022/07/19 10:01:59;;;;;;;5.10;1.93;;;;;;;31.49;28.75;100497.78;20989417;28;20425;-69
2022/07/19 10:12:00;;;;;;;5.95;2.35;;;;;;;31.68;27.49;100486.75;20988856;28;20064;-68
2022/07/19 10:22:02;;;;;;;7.82;2.28;;;;;;;32.57;23.83;100466.56;20988711;28;20139;-69
2022/07/19 10:32:03;;;;;;;6.75;2.08;;;;;;;32.86;22.74;100445.28;20987660;28;20051;-69
2022/07/19 10:42:05;;;;;;;7.72;2.30;;;;;;;32.98;22.69;100428.72;20987775;28;20048;-69
2022/07/19 10:52:06;;;;;;;7.43;2.00;;;;;;;33.22;23.24;100428.72;20986686;28;20053;-69
2022/07/19 11:02:07;;;;;;;7.15;2.17;;;;;;;33.40;22.46;100410.41;20985740;28;20420;-68
2022/07/19 11:12:29;;;;;;;9.65;2.28;;;;;;;33.83;21.50;100392.00;20986103;28;20055;-68
2022/07/19 11:22:30;;;;;;;7.83;2.63;;;;;;;33.83;20.06;100375.69;20986684;28;20061;-69
2022/07/19 11:32:32;;;;;;;7.07;2.00;;;;;;;33.69;21.17;100374.56;20984927;28;20470;-69
2022/07/19 11:42:33;;;;;;;5.03;2.03;;;;;;;33.92;20.48;100354.75;20984480;28;20062;-68
2022/07/19 11:52:54;;;;;;;7.63;2.33;;;;;;;33.89;20.22;100357.84;20983504;28;20082;-69
2022/07/19 12:02:57;;;;;;;7.60;1.90;;;;;;;33.83;21.05;100348.53;20983096;28;20079;-69
2022/07/19 12:12:58;;;;;;;6.93;2.10;;;;;;;33.81;19.81;100334.25;20994153;28;20052;-69
2022/07/19 12:23:00;;;;;;;13.43;2.60;;;;;;;34.01;21.10;100314.84;20999850;28;20131;-69
2022/07/19 12:33:01;;;;;;;5.90;2.27;;;;;;;33.87;20.15;100309.13;20997852;28;20396;-69
2022/07/19 12:43:03;;;;;;;5.30;1.97;;;;;;;33.86;20.87;100306.56;20997458;28;20052;-69
2022/07/19 12:53:04;;;;;;;;;;;;;;;34.09;20.54;100295.78;20996375;28;20453;-69
2022/07/19 13:03:06;;;;;;;10.82;2.45;;;;;;;33.98;19.93;100285.34;20995676;28;20011;-67
2022/07/19 13:13:07;;;;;;;5.50;2.40;;;;;;;34.40;19.07;100282.13;20994471;28;20049;-68
2022/07/19 13:23:09;;;;;;;8.77;2.50;;;;;;;34.45;18.00;100277.91;20994537;28;20056;-68
2022/07/19 13:33:10;;;;;;;6.70;2.30;;;;;;;34.44;18.91;100251.69;20993200;28;20048;-67
2022/07/19 13:43:12;;;;;;;;;;;;;;;34.89;18.34;100239.09;20993693;28;20573;-67
2022/07/19 13:53:13;;;;;;;4.60;2.30;;;;;;;34.91;17.25;100220.69;20979814;28;20022;-69
2022/07/19 14:03:16;;;;;;;9.63;2.80;;;;;;;34.56;18.32;100215.97;20907863;28;20414;-70
2022/07/19 14:13:18;;;;;;;7.68;2.90;;;;;;;35.33;15.71;100202.88;20907693;28;20045;-70
2022/07/19 14:23:35;;;;;;;8.95;2.90;;;;;;;34.83;17.21;100190.00;20906114;28;20060;-71
2022/07/19 14:33:37;;;;;;;11.17;3.03;;;;;;;35.32;16.21;100178.56;20951010;28;20041;-70
2022/07/19 14:43:38;;;;;;;7.57;2.70;;;;;;;35.08;18.20;100177.84;20985834;28;20745;-68
2022/07/19 14:53:40;;;;;;;5.57;2.87;;;;;;;35.32;18.09;100165.81;20984873;28;20475;-68
2022/07/19 15:03:41;;;;;;;9.33;3.00;;;;;;;34.96;18.17;100163.84;20982728;28;20054;-69
2022/07/19 15:13:42;;;;;;;13.03;3.10;;;;;;;34.96;16.15;100150.25;20982950;28;20318;-67
2022/07/19 15:23:45;;;;;;;10.00;3.10;;;;;;;35.69;16.74;100142.13;20981890;28;20070;-68
2022/07/19 15:33:46;;;;;;;9.23;2.90;;;;;;;35.30;17.55;100128.91;20980035;28;20088;-69
2022/07/19 15:43:48;;;;;;;8.63;3.33;;;;;;;35.45;17.76;100130.59;20981159;28;20051;-68
2022/07/19 15:53:49;;;;;;;6.37;2.87;;;;;;;35.52;16.90;100118.94;20981280;28;20310;-70
2022/07/19 16:03:51;;;;;;;11.17;2.80;;;;;;;35.79;16.99;100106.41;20967248;28;20135;-70
2022/07/19 16:13:52;;;;;;;14.63;3.15;;;;;;;35.80;16.46;100092.59;20937563;28;20323;-69
2022/07/19 16:23:53;;;;;;;6.87;3.43;;;;;;;35.71;18.08;100093.78;20926059;28;20053;-68
2022/07/19 16:33:55;;;;;;;7.43;3.00;;;;;;;35.81;18.01;100080.66;20889104;28;20310;-68
2022/07/19 16:43:56;;;;;;;7.75;2.80;;;;;;;35.84;18.19;100069.38;20961929;28;20463;-68
2022/07/19 16:53:58;;;;;;;9.37;3.43;;;;;;;35.85;17.56;100064.78;20973007;28;20415;-68
2022/07/19 17:03:59;;;;;;;10.37;3.43;;;;;;;35.84;18.81;100058.47;20984855;28;20286;-68
2022/07/19 17:14:00;;;;;;;7.40;2.97;;;;;;;35.55;19.30;100053.16;20949103;28;20319;-68
2022/07/19 17:24:02;;;;;;;6.63;3.15;;;;;;;35.45;19.33;100048.91;20901506;28;20045;-68
2022/07/19 17:34:03;;;;;;;10.30;3.50;;;;;;;35.22;20.50;100048.22;20902767;28;20056;-68
2022/07/19 17:44:05;;;;;;;6.33;3.20;;;;;;;35.04;20.36;100036.91;20896555;28;20053;-68
2022/07/19 17:54:06;;;;;;;9.73;3.17;;;;;;;34.82;19.92;100036.81;20902692;28;20056;-68
2022/07/19 18:04:08;;;;;;;10.77;3.70;;;;;;;34.51;21.14;100030.78;20897372;28;20049;-68
2022/07/19 18:14:11;;;;;;;13.55;3.30;;;;;;;34.35;21.35;100039.91;20936741;28;20059;-69
2022/07/19 18:24:12;;;;;;;5.75;2.90;;;;;;;33.99;22.05;100037.09;20979039;28;20102;-68
2022/07/19 18:34:14;;;;;;;6.13;2.60;;;;;;;33.50;22.92;100040.19;20976773;28;20060;-68
2022/07/19 18:44:15;;;;;;;9.77;3.03;;;;;;;32.87;23.89;100044.78;20975990;28;20054;-68
2022/07/19 18:54:16;;;;;;;8.97;3.10;;;;;;;32.22;25.15;100055.78;20976652;28;20074;-68
2022/07/19 19:04:18;;;;;;;8.27;3.57;;;;;;;31.83;26.49;100065.50;20975047;28;20144;-68
2022/07/19 19:14:19;;;;;;;9.35;4.10;;;;;;;31.31;27.28;100062.19;20933741;28;20493;-68
2022/07/19 19:24:21;;;;;;;12.52;3.42;;;;;;;30.84;28.74;100060.84;20891090;28;20516;-68
2022/07/19 19:34:30;;;;;;;11.52;3.40;;;;;;;30.22;30.34;100065.56;20890333;28;20044;-68
2022/07/19 19:44:32;;;;;;;11.27;3.38;;;;;;;29.73;32.24;100075.97;20890211;28;20466;-68
2022/07/19 19:54:33;;;;;;;7.72;2.88;;;;;;;29.29;33.39;100092.03;20889510;28;20092;-67
2022/07/19 20:04:35;;;;;;;7.75;3.15;;;;;;;28.83;33.11;100098.34;20889192;28;20045;-67
2022/07/19 20:14:36;;;;;;;6.38;2.80;;;;;;;28.40;34.15;100101.63;20931824;28;20389;-67
2022/07/19 20:24:37;;;;;;;7.15;3.20;;;;;;;27.93;35.29;100109.59;20971362;28;20139;-67
2022/07/19 20:34:39;;;;;;;7.78;2.85;;;;;;;27.65;36.26;100108.59;20983538;28;20253;-68
2022/07/19 20:44:40;;;;;;;10.27;3.35;;;;;;;27.39;37.47;100114.50;20986647;28;20081;-67
2022/07/19 20:54:42;;;;;;;14.88;3.72;;;;;;;26.97;38.82;100128.06;20985336;28;20489;-67
2022/07/19 21:04:43;;;;;;;7.18;3.30;;;;;;;26.75;38.00;100130.97;20984293;28;20055;-70
2022/07/19 21:14:44;;;;;;;6.70;3.00;;;;;;;26.44;39.04;100130.09;20940886;28;20052;-69
2022/07/19 21:24:46;;;;;;;8.60;3.10;;;;;;;26.20;39.25;100141.91;20884123;28;20520;-70
2022/07/19 21:34:47;;;;;;;5.88;2.88;;;;;;;25.94;40.31;100154.00;20900348;28;20045;-68
2022/07/19 21:44:48;;;;;;;9.25;3.20;;;;;;;25.68;41.28;100159.69;20899103;28;20061;-71
2022/07/19 21:54:50;;;;;;;10.10;3.08;;;;;;;25.37;42.67;100158.66;20897345;28;20055;-72
2022/07/19 22:04:54;;;;;;;;;;;;;;;25.22;42.23;100160.75;20948119;28;20063;-71
2022/07/19 22:14:55;;;;;;;7.95;3.40;;;;;;;25.10;43.23;100153.69;20989187;28;19924;-71
2022/07/19 22:24:57;;;;;;;8.98;3.42;;;;;;;24.76;44.79;100172.41;20988928;28;20143;-70
2022/07/19 22:34:59;;;;;;;6.68;3.08;;;;;;;24.55;45.12;100176.78;20986586;28;20045;-71
2022/07/19 22:45:00;;;;;;;10.55;3.53;;;;;;;24.35;46.11;100172.06;20987566;28;20060;-69
2022/07/19 22:55:02;;;;;;;8.00;3.30;;;;;;;24.13;47.31;100184.41;20985643;28;20059;-69
2022/07/19 23:05:03;;;;;;;6.55;3.50;;;;;;;23.87;49.15;100177.50;20985223;28;20074;-69
2022/07/19 23:15:04;;;;;;;7.10;3.75;;;;;;;23.68;49.17;100178.84;20983864;28;20417;-69
2022/07/19 23:25:06;;;;;;;8.07;3.85;;;;;;;23.72;47.52;100169.66;20984218;28;20070;-71
2022/07/19 23:35:07;;;;;;;9.85;3.80;;;;;;;23.61;49.58;100161.50;20983638;28;20049;-69
2022/07/19 23:45:09;;;;;;;9.95;3.78;;;;;;;23.36;49.97;100162.47;20983860;28;20679;-69
2022/07/19 23:55:10;;;;;;;9.63;4.18;;;;;;;23.26;51.72;100166.78;20982661;28;20048;-70
